Time;durP1;ratioP1;P1;durP2;ratioP2;P2;SDS_P1;SDS_P2;PMS_P1;PMS_P2;Temp;Humidity;BMP_temperature;BMP_pressure;BME280_temperature;BME280_humidity;BME280_pressure;Samples;Min_cycle;Max_cycle;Signal;HPM_P1;HPM_P2
2022/02/26 00:01:49;;;;;;;49.30;34.25;;;;;;;2.52;71.39;100790.43;1658328;86;21481;-69
2022/02/26 00:04:17;;;;;;;52.27;35.15;;;;;;;2.53;71.29;100792.08;1657289;84;21505;-68
2022/02/26 00:06:43;;;;;;;49.85;35.13;;;;;;;2.54;71.15;100795.02;1656526;85;21050;-69
2022/02/26 00:09:10;;;;;;;50.67;35.08;;;;;;;2.55;71.04;100793.19;1657927;84;21062;-69
2022/02/26 00:11:37;;;;;;;51.75;34.38;;;;;;;2.51;70.90;100799.36;1655229;84;21062;-69
2022/02/26 00:14:05;;;;;;;52.58;34.80;;;;;;;2.45;70.87;100797.52;1655973;84;21674;-69
2022/02/26 00:16:33;;;;;;;49.95;35.10;;;;;;;2.44;70.84;100807.76;1657802;84;21559;-69
2022/02/26 00:19:00;;;;;;;51.30;33.60;;;;;;;2.37;70.77;100805.61;1659003;84;21526;-69
2022/02/26 00:21:27;;;;;;;50.85;32.42;;;;;;;2.35;70.77;100811.56;1656602;85;21173;-67
2022/02/26 00:23:54;;;;;;;49.80;33.73;;;;;;;2.30;70.73;100808.22;1656827;84;21556;-68
2022/02/26 00:26:22;;;;;;;46.40;32.08;;;;;;;2.29;70.82;100813.16;1656666;84;21102;-68
2022/02/26 00:28:49;;;;;;;45.08;31.05;;;;;;;2.31;70.86;100812.47;1657240;84;21159;-68
2022/02/26 00:31:16;;;;;;;47.75;32.08;;;;;;;2.34;70.93;100818.66;1656829;84;21617;-68
2022/02/26 00:33:44;;;;;;;47.30;32.40;;;;;;;2.40;70.94;100823.63;1658142;84;21256;-69
2022/02/26 00:36:11;;;;;;;48.13;32.75;;;;;;;2.44;70.98;100827.53;1656752;84;21108;-69
2022/02/26 00:38:38;;;;;;;44.48;30.27;;;;;;;2.51;70.96;100826.23;1657940;85;21134;-69
2022/02/26 00:41:04;;;;;;;49.67;32.00;;;;;;;2.57;70.90;100824.95;1659346;85;21455;-69
2022/02/26 00:43:32;;;;;;;50.58;31.70;;;;;;;2.61;70.88;100826.68;1637265;86;21705;-69
2022/02/26 00:45:58;;;;;;;50.10;30.95;;;;;;;2.66;70.89;100829.52;1657781;84;21113;-70
2022/02/26 00:51:10;;;;;;;45.38;30.72;;;;;;;2.86;71.02;100834.04;1657313;84;21139;-69
2022/02/26 00:53:38;;;;;;;43.60;29.27;;;;;;;2.96;71.12;100835.30;1657152;84;21166;-68
2022/02/26 00:56:05;;;;;;;45.75;29.18;;;;;;;3.09;71.13;100837.64;1657311;84;21067;-68
2022/02/26 00:58:32;;;;;;;43.45;28.05;;;;;;;3.23;71.13;100843.27;1656447;84;21036;-69
2022/02/26 01:00:58;;;;;;;45.05;29.52;;;;;;;3.33;71.17;100846.32;1659488;85;21564;-69
2022/02/26 01:03:25;;;;;;;38.65;24.92;;;;;;;3.42;71.21;100850.39;1657542;84;21094;-68
2022/02/26 01:05:52;;;;;;;32.30;23.25;;;;;;;3.52;71.39;100856.09;1657934;84;21489;-68
2022/02/26 01:08:18;;;;;;;32.45;21.65;;;;;;;3.67;71.54;100851.09;1655931;84;21554;-68
2022/02/26 01:10:46;;;;;;;23.65;16.35;;;;;;;3.79;71.60;100849.47;1623944;86;21558;-68
2022/02/26 01:13:12;;;;;;;21.15;13.93;;;;;;;3.93;71.73;100855.03;1657322;84;21071;-69
2022/02/26 01:15:39;;;;;;;19.55;12.65;;;;;;;4.09;71.73;100855.62;1657941;84;21095;-70
2022/02/26 01:18:06;;;;;;;14.23;10.80;;;;;;;4.27;71.58;100857.60;1655128;84;21544;-68
2022/02/26 01:20:33;;;;;;;16.27;10.58;;;;;;;4.42;71.30;100857.66;1658695;85;21082;-69
2022/02/26 01:23:00;;;;;;;14.13;9.53;;;;;;;4.56;71.02;100856.29;1657155;84;21090;-69
2022/02/26 01:25:27;;;;;;;14.55;9.35;;;;;;;4.68;70.62;100862.55;1657560;84;21763;-68
2022/02/26 01:27:53;;;;;;;12.70;8.15;;;;;;;4.78;70.14;100864.23;1656871;84;21130;-69
2022/02/26 01:30:21;;;;;;;10.95;7.97;;;;;;;4.87;69.70;100862.97;1659213;85;21543;-69
2022/02/26 01:32:49;;;;;;;10.45;7.08;;;;;;;4.94;69.34;100854.48;1658069;86;21074;-69
2022/02/26 01:35:16;;;;;;;12.58;7.62;;;;;;;5.01;68.98;100860.26;1658413;84;21921;-69
2022/02/26 01:37:43;;;;;;;12.03;7.65;;;;;;;5.04;68.70;100857.19;1657877;84;21071;-69
2022/02/26 01:40:11;;;;;;;9.75;6.87;;;;;;;5.05;68.47;100856.96;1659065;85;21118;-69
2022/02/26 01:42:38;;;;;;;11.25;7.37;;;;;;;5.07;68.31;100860.73;1657465;84;21855;-70
2022/02/26 01:45:13;;;;;;;10.65;6.53;;;;;;;5.08;68.12;100875.07;1657342;84;21067;-69
2022/02/26 01:47:41;;;;;;;10.10;6.80;;;;;;;5.09;67.97;100878.52;1658140;84;21138;-68
2022/02/26 01:50:11;;;;;;;9.18;6.37;;;;;;;5.10;67.80;100864.25;1660121;84;21106;-68
2022/02/26 01:52:38;;;;;;;8.78;5.75;;;;;;;5.10;67.67;100870.38;1657649;84;21086;-68
2022/02/26 01:55:07;;;;;;;10.15;6.00;;;;;;;5.09;67.43;100874.55;1660391;84;21085;-68
2022/02/26 01:57:34;;;;;;;9.05;5.70;;;;;;;5.11;67.27;100896.34;1657173;85;21579;-68
2022/02/26 02:00:01;;;;;;;7.83;5.65;;;;;;;5.12;67.17;100889.50;1657656;85;21114;-68
2022/02/26 02:02:28;;;;;;;7.78;5.15;;;;;;;5.13;67.09;100879.72;1658416;85;21145;-68
2022/02/26 02:04:55;;;;;;;9.48;5.75;;;;;;;5.12;66.97;100883.39;1658168;84;21150;-70
2022/02/26 02:07:22;;;;;;;7.65;5.17;;;;;;;5.10;66.89;100893.38;1657422;84;21685;-68
2022/02/26 02:09:50;;;;;;;9.40;5.60;;;;;;;5.06;66.78;100896.96;1656563;84;21122;-67
2022/02/26 02:12:17;;;;;;;7.83;5.30;;;;;;;5.05;66.75;100890.57;1656936;84;21070;-68
2022/02/26 02:14:45;;;;;;;8.05;5.50;;;;;;;5.04;66.76;100916.23;1657652;84;21081;-68
2022/02/26 02:17:12;;;;;;;7.83;4.50;;;;;;;5.04;66.76;100901.67;1655102;84;21066;-68
2022/02/26 02:19:38;;;;;;;8.25;4.58;;;;;;;5.03;66.73;100900.55;1660888;86;21210;-69
2022/02/26 02:22:07;;;;;;;6.70;4.40;;;;;;;5.01;66.68;100909.23;1661238;86;21087;-68
2022/02/26 02:24:34;;;;;;;9.03;4.50;;;;;;;5.03;66.64;100915.11;1657892;84;21127;-67
2022/02/26 02:27:02;;;;;;;8.33;4.85;;;;;;;5.04;66.62;100915.43;1656991;84;21103;-69
2022/02/26 02:29:29;;;;;;;7.05;4.37;;;;;;;5.05;66.60;100923.66;1658198;84;21093;-69
2022/02/26 02:31:56;;;;;;;6.33;4.35;;;;;;;5.03;66.49;100917.75;1658727;84;21098;-69
2022/02/26 02:34:23;;;;;;;7.47;4.60;;;;;;;5.01;66.44;100916.66;1625975;87;21090;-69
2022/02/26 02:36:49;;;;;;;6.70;4.25;;;;;;;5.03;66.43;100919.08;1605908;87;21141;-69
2022/02/26 02:39:16;;;;;;;7.37;5.12;;;;;;;5.03;66.40;100924.38;1614525;86;21114;-69
2022/02/26 02:41:43;;;;;;;9.05;5.10;;;;;;;5.04;66.35;100922.05;1625318;86;21058;-69
2022/02/26 02:44:13;;;;;;;8.80;5.40;;;;;;;5.03;66.32;100929.67;1624811;87;22172;-69
2022/02/26 02:46:41;;;;;;;7.97;4.62;;;;;;;5.02;66.31;100936.00;1623513;86;21122;-68
2022/02/26 02:49:08;;;;;;;9.15;5.17;;;;;;;5.01;66.25;100933.06;1624560;87;21171;-67
2022/02/26 02:51:35;;;;;;;9.00;4.87;;;;;;;5.00;66.24;100936.70;1656778;84;21063;-69
2022/02/26 02:54:03;;;;;;;10.72;5.92;;;;;;;4.98;66.23;100942.74;1655968;84;21074;-69
2022/02/26 02:56:32;;;;;;;10.68;6.22;;;;;;;4.93;66.27;100942.84;1659007;85;21996;-67
2022/02/26 02:58:59;;;;;;;10.65;6.00;;;;;;;4.93;66.34;100949.97;1657693;84;21561;-68
2022/02/26 03:01:26;;;;;;;9.35;5.80;;;;;;;4.92;66.39;100947.84;1654470;84;22192;-68
2022/02/26 03:03:53;;;;;;;10.63;6.53;;;;;;;4.91;66.42;100956.81;1657973;85;21071;-68
2022/02/26 03:06:27;;;;;;;11.88;6.20;;;;;;;4.89;66.44;100954.06;1656854;84;21141;-69
2022/02/26 03:08:54;;;;;;;10.75;6.00;;;;;;;4.89;66.46;100968.11;1658392;84;21179;-68
2022/02/26 03:11:21;;;;;;;8.73;5.67;;;;;;;4.89;66.49;100964.14;1657071;84;21100;-70
2022/02/26 03:13:49;;;;;;;10.28;5.80;;;;;;;4.88;66.52;100960.39;1655936;84;21097;-68
2022/02/26 03:16:16;;;;;;;10.58;5.42;;;;;;;4.87;66.56;100964.88;1657509;84;21035;-69
2022/02/26 03:18:44;;;;;;;10.95;6.17;;;;;;;4.86;66.56;100965.87;1657729;84;21629;-68
2022/02/26 03:21:11;;;;;;;12.00;6.78;;;;;;;4.84;66.61;100965.29;1658436;84;21291;-69
2022/02/26 03:23:37;;;;;;;14.50;6.83;;;;;;;4.85;66.60;100973.52;1656232;84;20984;-68
2022/02/26 03:26:04;;;;;;;11.38;6.83;;;;;;;4.86;66.63;100972.49;1656761;84;21086;-68
2022/02/26 03:28:31;;;;;;;13.95;7.37;;;;;;;4.83;66.66;100975.55;1658312;86;21039;-69
2022/02/26 03:30:58;;;;;;;12.55;6.78;;;;;;;4.83;66.73;100972.91;1658815;84;21219;-69
2022/02/26 03:33:24;;;;;;;12.37;7.08;;;;;;;4.81;66.79;100977.61;1657804;84;21145;-69
2022/02/26 03:35:51;;;;;;;16.95;6.92;;;;;;;4.78;66.83;100974.06;1657755;84;21138;-68
2022/02/26 03:38:18;;;;;;;18.15;7.80;;;;;;;4.76;66.87;100979.25;1660046;84;21075;-70
2022/02/26 03:40:45;;;;;;;15.70;7.28;;;;;;;4.72;66.93;100980.18;1656854;84;22566;-68
2022/02/26 03:43:12;;;;;;;18.85;7.70;;;;;;;4.69;66.99;100987.20;1629632;86;21147;-69
2022/02/26 03:45:39;;;;;;;15.03;6.70;;;;;;;4.64;67.11;100994.45;1658260;84;21140;-68
2022/02/26 03:48:05;;;;;;;17.62;6.70;;;;;;;4.60;67.21;100991.09;1658693;84;21063;-68
2022/02/26 03:50:33;;;;;;;15.10;7.10;;;;;;;4.56;67.29;100999.95;1657852;84;21062;-70
2022/02/26 03:52:59;;;;;;;15.18;6.65;;;;;;;4.51;67.42;100999.77;1658895;84;21229;-67
2022/02/26 03:55:26;;;;;;;17.07;7.53;;;;;;;4.45;67.51;101009.33;1659325;85;21037;-69
2022/02/26 03:57:53;;;;;;;15.08;7.92;;;;;;;4.40;67.56;101006.48;1657607;84;21141;-68
2022/02/26 04:00:19;;;;;;;14.85;7.95;;;;;;;4.34;67.64;101010.45;1658623;84;21011;-68
2022/02/26 04:02:46;;;;;;;15.88;7.97;;;;;;;4.25;67.73;101020.44;1655239;84;21713;-67
2022/02/26 04:05:13;;;;;;;16.05;7.72;;;;;;;4.16;67.91;101025.61;1658853;84;21165;-68
2022/02/26 04:07:40;;;;;;;15.25;7.65;;;;;;;4.07;68.16;101029.47;1657638;84;21117;-68
2022/02/26 04:10:10;;;;;;;18.80;8.30;;;;;;;4.00;68.39;101042.16;1658146;84;21146;-69
2022/02/26 04:12:39;;;;;;;15.68;7.60;;;;;;;3.96;68.62;101043.59;1658792;85;21009;-68
2022/02/26 04:15:08;;;;;;;19.25;8.98;;;;;;;3.93;68.72;101037.89;1658173;84;21636;-69
2022/02/26 04:17:36;;;;;;;18.00;9.35;;;;;;;3.91;68.82;101049.97;1659714;86;20996;-69
2022/02/26 04:20:06;;;;;;;21.33;10.98;;;;;;;3.86;68.90;101051.09;1656493;85;21131;-68
2022/02/26 04:22:33;;;;;;;16.27;10.03;;;;;;;3.82;68.97;101055.16;1658703;84;21659;-69
2022/02/26 04:25:00;;;;;;;13.68;8.15;;;;;;;3.76;69.06;101057.28;1658071;85;21545;-69
2022/02/26 04:27:27;;;;;;;13.58;8.88;;;;;;;3.70;69.16;101062.84;1656982;84;21154;-68
2022/02/26 04:29:55;;;;;;;12.05;8.38;;;;;;;3.63;69.23;101069.12;1659468;84;21538;-68
2022/02/26 04:32:22;;;;;;;12.95;7.97;;;;;;;3.57;69.39;101081.80;1657477;84;21070;-68
2022/02/26 04:34:50;;;;;;;11.10;7.83;;;;;;;3.52;69.57;101082.38;1658957;84;21514;-69
2022/02/26 04:37:20;;;;;;;15.80;8.45;;;;;;;3.46;69.76;101084.00;1657311;85;21052;-69
2022/02/26 04:39:47;;;;;;;12.28;8.43;;;;;;;3.40;70.01;101088.74;1657722;84;21091;-69
2022/02/26 04:42:14;;;;;;;12.30;8.10;;;;;;;3.37;70.36;101098.37;1658052;85;21083;-69
2022/02/26 04:44:41;;;;;;;15.32;9.18;;;;;;;3.34;70.62;101100.59;1661294;85;21079;-69
2022/02/26 04:47:08;;;;;;;15.43;9.00;;;;;;;3.33;70.89;101104.25;1661393;85;22140;-69
2022/02/26 04:49:35;;;;;;;15.85;8.43;;;;;;;3.32;71.16;101115.80;1656986;84;21079;-70
2022/02/26 04:52:03;;;;;;;12.20;7.92;;;;;;;3.31;71.44;101116.31;1658369;84;21091;-69
2022/02/26 04:54:32;;;;;;;15.13;8.48;;;;;;;3.31;71.58;101119.47;1658060;84;21172;-69
2022/02/26 04:57:00;;;;;;;16.00;8.48;;;;;;;3.30;71.65;101117.33;1655910;84;21082;-69
2022/02/26 04:59:26;;;;;;;18.65;9.00;;;;;;;3.28;71.78;101122.79;1625237;87;21841;-68
2022/02/26 05:01:53;;;;;;;16.85;9.33;;;;;;;3.28;71.75;101137.83;1657791;84;21094;-68
2022/02/26 05:04:21;;;;;;;16.40;9.80;;;;;;;3.25;71.74;101140.84;1659989;84;21154;-68
2022/02/26 05:06:53;;;;;;;13.80;9.65;;;;;;;3.20;71.75;101144.59;1656429;85;21082;-68
2022/02/26 05:09:20;;;;;;;13.83;8.70;;;;;;;3.18;71.78;101155.33;1655969;84;21674;-69
2022/02/26 05:11:50;;;;;;;14.98;9.30;;;;;;;3.14;71.88;101155.92;1658305;85;21094;-70
2022/02/26 05:14:18;;;;;;;14.18;9.25;;;;;;;3.11;71.99;101158.44;1666266;85;21114;-69
2022/02/26 05:16:47;;;;;;;11.80;8.35;;;;;;;3.11;72.07;101158.94;1657525;84;21383;-70
2022/02/26 05:19:14;;;;;;;14.43;8.70;;;;;;;3.09;72.15;101162.27;1654984;85;21602;-70
2022/02/26 05:21:41;;;;;;;11.55;8.00;;;;;;;3.08;72.21;101164.60;1658337;84;47725;-69
2022/02/26 05:24:08;;;;;;;12.40;8.05;;;;;;;3.07;72.32;101162.98;1658505;85;21581;-69
2022/02/26 05:26:35;;;;;;;14.13;9.53;;;;;;;3.08;72.40;101172.52;1657632;84;20959;-70
2022/02/26 05:29:01;;;;;;;13.08;9.95;;;;;;;3.04;72.52;101176.86;1661465;84;21539;-69
2022/02/26 05:31:28;;;;;;;14.63;9.60;;;;;;;3.04;72.61;101183.46;1658325;85;21099;-70
2022/02/26 05:33:55;;;;;;;13.98;9.63;;;;;;;3.03;72.73;101179.20;1658951;84;21071;-69
2022/02/26 05:36:22;;;;;;;15.90;10.55;;;;;;;3.03;72.82;101184.98;1659479;84;21040;-69
2022/02/26 05:38:50;;;;;;;17.45;11.57;;;;;;;3.04;72.94;101188.73;1657582;84;21146;-69
2022/02/26 05:41:17;;;;;;;14.85;11.43;;;;;;;3.03;73.06;101188.44;1659237;84;21185;-69
2022/02/26 05:43:44;;;;;;;17.27;12.13;;;;;;;3.02;73.20;101184.14;1656731;85;21134;-68
2022/02/26 05:46:10;;;;;;;16.82;11.48;;;;;;;3.02;73.32;101180.19;1658673;84;21514;-69
2022/02/26 05:48:37;;;;;;;16.73;11.20;;;;;;;3.03;73.47;101188.94;1658008;84;21234;-69
2022/02/26 05:51:04;;;;;;;17.98;11.43;;;;;;;3.06;73.56;101199.12;1625387;86;21039;-69
2022/02/26 05:53:31;;;;;;;17.98;10.28;;;;;;;3.09;73.75;101196.06;1654762;84;21782;-69
2022/02/26 05:56:00;;;;;;;19.55;11.10;;;;;;;3.16;73.80;101201.39;1656746;85;21171;-67
2022/02/26 05:58:27;;;;;;;17.25;11.38;;;;;;;3.19;73.80;101207.61;1658968;84;21109;-70
2022/02/26 06:00:55;;;;;;;20.27;11.08;;;;;;;3.21;73.81;101202.97;1657418;85;21195;-69
2022/02/26 06:03:22;;;;;;;19.25;11.93;;;;;;;3.25;73.80;101212.13;1657315;84;21078;-68
2022/02/26 06:05:49;;;;;;;16.00;11.57;;;;;;;3.27;73.77;101204.84;1657889;84;21115;-67
2022/02/26 06:08:16;;;;;;;19.80;11.35;;;;;;;3.33;73.77;101213.31;1658236;84;21039;-70
2022/02/26 06:10:44;;;;;;;17.35;11.15;;;;;;;3.37;73.76;101217.70;1657398;84;21059;-70
2022/02/26 06:13:11;;;;;;;18.07;11.53;;;;;;;3.43;73.73;101217.75;1658427;84;21925;-70
2022/02/26 06:15:40;;;;;;;21.77;12.73;;;;;;;3.50;73.73;101230.48;1657084;84;21117;-69
2022/02/26 06:18:08;;;;;;;20.72;13.05;;;;;;;3.60;73.71;101226.69;1655788;85;22006;-69
2022/02/26 06:20:36;;;;;;;20.55;12.98;;;;;;;3.68;73.64;101229.16;1656009;84;21015;-69
2022/02/26 06:23:03;;;;;;;18.82;12.23;;;;;;;3.74;73.52;101228.38;1657847;84;21508;-68
2022/02/26 06:25:30;;;;;;;21.68;13.15;;;;;;;3.83;73.47;101237.79;1657841;85;22088;-69
2022/02/26 06:27:56;;;;;;;17.85;11.70;;;;;;;3.89;73.43;101239.66;1657072;84;20973;-69
2022/02/26 06:30:26;;;;;;;16.50;10.45;;;;;;;3.96;73.13;101237.85;1659426;84;21090;-67
2022/02/26 06:32:54;;;;;;;19.55;11.40;;;;;;;4.03;72.93;101245.81;1658322;85;21049;-69
2022/02/26 06:35:20;;;;;;;19.45;11.30;;;;;;;4.08;72.65;101251.34;1653647;84;21056;-69
2022/02/26 06:37:48;;;;;;;20.88;12.35;;;;;;;4.16;72.51;101251.66;1658740;84;21982;-70
2022/02/26 06:40:14;;;;;;;20.27;12.60;;;;;;;4.22;72.30;101260.14;1656327;84;21653;-69
2022/02/26 06:42:41;;;;;;;19.80;12.73;;;;;;;4.31;72.13;101258.11;1657090;84;21036;-69
2022/02/26 06:45:09;;;;;;;20.95;12.15;;;;;;;4.42;71.90;101266.30;1657181;84;21051;-69
2022/02/26 06:47:36;;;;;;;18.35;11.05;;;;;;;4.52;71.53;101270.41;1657087;84;21002;-68
2022/02/26 06:50:05;;;;;;;16.70;10.30;;;;;;;4.58;71.16;101264.33;1655871;84;21204;-68
2022/02/26 06:52:32;;;;;;;22.70;12.25;;;;;;;4.62;70.68;101276.13;1627159;86;21024;-70
2022/02/26 06:54:59;;;;;;;19.17;12.00;;;;;;;4.64;70.31;101271.44;1658577;84;21051;-71
2022/02/26 06:57:26;;;;;;;18.40;11.85;;;;;;;4.67;70.06;101274.52;1659002;84;21094;-72
2022/02/26 06:59:52;;;;;;;18.92;11.57;;;;;;;4.72;69.94;101271.27;1643593;85;21085;-73
2022/02/26 07:02:19;;;;;;;20.20;12.05;;;;;;;4.79;69.80;101281.86;1659014;85;21550;-73
2022/02/26 07:04:46;;;;;;;18.75;11.53;;;;;;;4.86;69.59;101291.44;1668092;85;21550;-72
2022/02/26 07:07:13;;;;;;;15.08;10.03;;;;;;;4.92;69.10;101295.94;1664334;84;21121;-72
2022/02/26 07:09:42;;;;;;;16.82;8.95;;;;;;;4.92;68.28;101295.94;1648889;84;21067;-72
2022/02/26 07:12:10;;;;;;;16.82;9.50;;;;;;;4.93;67.84;101297.55;1600219;87;21556;-71
2022/02/26 07:14:38;;;;;;;19.00;10.72;;;;;;;4.94;67.51;101301.05;1657283;85;21165;-72
2022/02/26 07:17:05;;;;;;;16.60;9.88;;;;;;;4.97;67.07;101305.94;1650511;84;21165;-72
2022/02/26 07:19:33;;;;;;;16.32;8.88;;;;;;;5.04;67.06;101311.24;1658584;85;21054;-72
2022/02/26 07:21:59;;;;;;;18.25;10.05;;;;;;;5.10;66.51;101317.88;1662565;85;21145;-73
2022/02/26 07:24:28;;;;;;;18.60;9.70;;;;;;;5.17;65.97;101313.39;1655615;84;21474;-73
2022/02/26 07:26:55;;;;;;;16.20;8.83;;;;;;;5.24;65.87;101316.05;1657055;85;21597;-73
2022/02/26 07:29:22;;;;;;;17.62;8.90;;;;;;;5.32;64.97;101313.70;1657798;84;21080;-74
2022/02/26 07:31:49;;;;;;;14.40;8.08;;;;;;;5.37;64.48;101317.38;1657497;85;21146;-72
2022/02/26 07:34:18;;;;;;;13.38;8.05;;;;;;;5.43;64.15;101319.73;1659605;84;22386;-71
2022/02/26 07:36:46;;;;;;;12.58;7.70;;;;;;;5.49;63.65;101322.86;1657856;84;21458;-72
2022/02/26 07:39:14;;;;;;;15.00;8.10;;;;;;;5.56;63.19;101321.05;1658864;84;21114;-70
2022/02/26 07:41:41;;;;;;;11.83;7.28;;;;;;;5.62;62.71;101328.16;1655907;85;21147;-71
2022/02/26 07:44:08;;;;;;;12.63;7.10;;;;;;;5.70;62.51;101326.34;1655382;84;21137;-70
2022/02/26 07:46:35;;;;;;;10.03;6.70;;;;;;;5.79;62.10;101335.68;1657268;84;21494;-72
2022/02/26 07:49:02;;;;;;;10.48;6.08;;;;;;;5.84;61.26;101326.61;1656927;84;21692;-69
2022/02/26 07:51:31;;;;;;;12.60;6.72;;;;;;;5.86;60.64;101343.95;1657502;84;22105;-69
2022/02/26 07:53:58;;;;;;;11.03;6.60;;;;;;;5.87;60.36;101342.92;1657827;85;21085;-70
2022/02/26 07:56:25;;;;;;;10.45;6.30;;;;;;;5.92;60.03;101342.80;1656796;86;22194;-69
2022/02/26 07:58:52;;;;;;;11.35;6.70;;;;;;;5.95;59.88;101338.45;1653220;84;21150;-71
2022/02/26 08:01:19;;;;;;;10.32;6.35;;;;;;;6.03;59.75;101342.22;1653812;85;21677;-70
2022/02/26 08:03:49;;;;;;;10.70;6.55;;;;;;;6.11;59.74;101344.63;1653217;84;21240;-69
2022/02/26 08:06:17;;;;;;;10.25;6.53;;;;;;;6.21;59.15;101347.66;1654435;84;21110;-68
2022/02/26 08:08:46;;;;;;;8.38;5.10;;;;;;;6.27;58.81;101353.47;1658286;84;21090;-68
2022/02/26 08:11:14;;;;;;;11.48;5.70;;;;;;;6.33;58.15;101352.64;1657769;85;21083;-69
2022/02/26 08:13:43;;;;;;;8.90;5.17;;;;;;;6.39;57.78;101350.19;1658487;85;21072;-69
2022/02/26 08:16:09;;;;;;;10.50;5.37;;;;;;;6.48;58.03;101356.38;1659586;84;21126;-69
2022/02/26 08:18:36;;;;;;;9.03;5.17;;;;;;;6.61;57.30;101358.14;1657046;84;21078;-70
2022/02/26 08:21:05;;;;;;;8.83;5.30;;;;;;;6.69;57.21;101353.93;1654516;84;21138;-70
2022/02/26 08:23:31;;;;;;;10.35;5.17;;;;;;;6.79;56.74;101356.13;1624279;86;21748;-68
2022/02/26 08:26:00;;;;;;;8.33;4.40;;;;;;;6.86;56.25;101342.82;1658560;84;21094;-69
2022/02/26 08:28:28;;;;;;;8.10;4.75;;;;;;;6.92;55.52;101338.80;1658091;84;21661;-70
2022/02/26 08:30:56;;;;;;;7.12;4.15;;;;;;;7.01;55.25;101344.69;1657863;84;21135;-69
2022/02/26 08:33:23;;;;;;;7.67;3.80;;;;;;;7.10;54.37;101346.03;1624668;86;21024;-70
2022/02/26 08:35:50;;;;;;;6.42;3.67;;;;;;;7.19;53.03;101346.59;1655664;84;21067;-69
2022/02/26 08:38:17;;;;;;;9.58;3.98;;;;;;;7.25;53.01;101350.54;1655980;84;21075;-68
2022/02/26 08:40:44;;;;;;;7.17;3.70;;;;;;;7.31;52.24;101356.84;1657127;84;22167;-69
2022/02/26 08:43:13;;;;;;;6.62;3.50;;;;;;;7.33;51.55;101352.63;1656216;85;21086;-73
2022/02/26 08:45:42;;;;;;;7.15;3.42;;;;;;;7.41;51.18;101353.19;1658070;84;21016;-69
2022/02/26 08:48:08;;;;;;;5.80;2.90;;;;;;;7.45;50.94;101357.55;1659804;84;21122;-72
2022/02/26 08:50:35;;;;;;;6.92;2.90;;;;;;;7.46;50.16;101347.21;1658738;84;21059;-71
2022/02/26 08:53:02;;;;;;;6.53;3.05;;;;;;;7.49;49.83;101355.56;1657491;84;21158;-70
2022/02/26 08:55:29;;;;;;;4.70;2.40;;;;;;;7.59;49.81;101348.95;1656854;84;21093;-71
2022/02/26 08:57:58;;;;;;;6.95;2.65;;;;;;;7.74;49.34;101346.78;1657150;85;21118;-69
2022/02/26 09:00:25;;;;;;;4.67;2.55;;;;;;;7.93;49.06;101354.25;1657054;84;21664;-69
2022/02/26 09:02:52;;;;;;;5.42;2.35;;;;;;;8.08;48.27;101351.26;1657830;84;22296;-71
2022/02/26 09:05:19;;;;;;;4.83;2.35;;;;;;;8.13;47.37;101343.44;1656456;84;21126;-72
2022/02/26 09:07:46;;;;;;;5.45;2.25;;;;;;;8.08;46.89;101349.41;1656860;84;21043;-71
2022/02/26 09:10:13;;;;;;;4.33;2.35;;;;;;;8.11;47.13;101345.50;1657845;84;21110;-70
2022/02/26 09:12:42;;;;;;;5.03;2.45;;;;;;;8.20;47.14;101342.33;1656314;84;21454;-72
2022/02/26 09:15:10;;;;;;;5.33;2.20;;;;;;;8.40;46.98;101349.30;1657386;84;21190;-71
2022/02/26 09:17:36;;;;;;;5.50;2.55;;;;;;;8.60;46.50;101349.87;1657593;84;21504;-71
2022/02/26 09:20:04;;;;;;;5.58;1.77;;;;;;;8.76;45.11;101352.96;1655907;85;21101;-71
2022/02/26 09:22:31;;;;;;;5.00;2.30;;;;;;;8.79;44.02;101343.19;1655576;84;21164;-70
2022/02/26 09:25:00;;;;;;;4.72;1.98;;;;;;;8.71;44.39;101356.80;1658089;84;21537;-70
2022/02/26 09:27:26;;;;;;;4.15;2.00;;;;;;;8.68;44.02;101354.06;1657449;84;21046;-71
2022/02/26 09:29:53;;;;;;;5.75;2.30;;;;;;;8.67;44.13;101349.78;1655737;84;21170;-70
2022/02/26 09:32:20;;;;;;;4.78;1.77;;;;;;;8.68;44.39;101360.20;1658653;84;21036;-72
2022/02/26 09:34:48;;;;;;;4.17;2.08;;;;;;;8.75;43.58;101362.78;1655284;85;21082;-72
2022/02/26 09:37:17;;;;;;;4.00;1.62;;;;;;;8.82;43.15;101364.05;1655482;84;21056;-70
2022/02/26 09:39:45;;;;;;;4.55;2.00;;;;;;;8.87;43.14;101355.66;1652858;84;22234;-74
2022/02/26 09:42:16;;;;;;;3.65;1.72;;;;;;;8.95;42.68;101359.03;1651720;84;22210;-71
2022/02/26 09:44:43;;;;;;;3.58;1.60;;;;;;;9.01;41.70;101363.47;1655378;84;21098;-68
2022/02/26 09:47:11;;;;;;;3.03;1.40;;;;;;;9.06;41.58;101349.77;1412478;83;10001152;-71
2022/02/26 09:49:38;;;;;;;3.50;1.50;;;;;;;9.09;40.81;101353.83;1627603;86;21025;-72
2022/02/26 09:52:10;;;;;;;3.75;1.35;;;;;;;9.03;40.60;101354.21;1625221;86;21641;-70
2022/02/26 09:54:37;;;;;;;2.80;1.10;;;;;;;8.98;40.47;101369.25;1633342;86;21151;-72
2022/02/26 09:57:04;;;;;;;4.17;1.50;;;;;;;8.90;39.88;101367.72;1629245;85;21069;-72
2022/02/26 09:59:31;;;;;;;3.08;1.20;;;;;;;8.85;40.10;101367.56;1633765;86;21187;-74
2022/02/26 10:02:07;;;;;;;3.87;1.42;;;;;;;8.81;38.88;101367.73;1633482;85;21161;-74
2022/02/26 10:04:38;;;;;;;2.87;1.42;;;;;;;8.71;38.36;101366.13;1631778;86;21136;-73
2022/02/26 10:07:14;;;;;;;3.83;1.40;;;;;;;8.65;38.78;101368.66;1632814;85;21077;-74
2022/02/26 10:09:45;;;;;;;6.83;2.42;;;;;;;8.77;38.95;101376.70;1634298;86;21093;-73
2022/02/26 10:12:27;;;;;;;6.35;3.22;;;;;;;9.00;40.80;101386.64;1632221;86;21152;-74
2022/02/26 10:14:59;;;;;;;5.17;2.70;;;;;;;9.21;42.56;101389.83;1632430;85;21289;-73
2022/02/26 10:17:35;;;;;;;;;;;;;;;9.34;42.22;101378.97;1636038;86;21134;-72
2022/02/26 10:20:16;;;;;;;7.10;2.50;;;;;;;9.33;41.76;101384.83;1654385;84;20468;-74
2022/02/26 10:22:48;;;;;;;5.03;2.52;;;;;;;9.33;41.86;101390.69;1655839;84;21130;-71
2022/02/26 10:25:26;;;;;;;8.45;3.02;;;;;;;9.23;41.74;101388.57;1657598;84;21123;-71
2022/02/26 10:27:56;;;;;;;5.75;2.50;;;;;;;9.12;42.21;101390.69;1657400;84;21149;-71
2022/02/26 10:30:28;;;;;;;4.85;2.42;;;;;;;9.06;41.97;101389.73;1656491;84;21661;-73
2022/02/26 10:33:25;;;;;;;4.53;2.55;;;;;;;9.06;42.20;101401.73;1655824;84;21101;-71
2022/02/26 10:36:00;;;;;;;4.78;2.40;;;;;;;9.18;42.06;101392.95;1658282;84;21011;-73
2022/02/26 10:38:31;;;;;;;4.42;2.10;;;;;;;9.35;41.47;101397.95;1641202;86;21138;-72
2022/02/26 10:41:11;;;;;;;5.70;1.77;;;;;;;9.49;41.79;101395.89;1659926;85;21115;-72
2022/02/26 10:43:53;;;;;;;4.83;1.42;;;;;;;9.64;41.22;101400.27;1658604;85;21079;-72
2022/02/26 10:46:30;;;;;;;3.30;1.22;;;;;;;9.67;38.36;101397.64;1656501;85;21166;-72
2022/02/26 10:49:00;;;;;;;3.60;1.40;;;;;;;9.57;37.37;101400.34;1658247;85;21081;-73
2022/02/26 10:51:34;;;;;;;4.92;1.90;;;;;;;9.52;37.54;101398.09;1664102;85;21074;-73
2022/02/26 10:54:04;;;;;;;5.85;1.90;;;;;;;9.58;38.55;101398.52;1653166;84;21130;-75
2022/02/26 10:56:34;;;;;;;2.98;1.60;;;;;;;9.67;39.05;101402.98;1651109;85;21039;-73
2022/02/26 10:59:06;;;;;;;5.05;1.55;;;;;;;9.76;38.86;101395.74;1660624;85;21059;-72
2022/02/26 11:01:33;;;;;;;3.30;1.60;;;;;;;9.80;38.33;101386.75;1654938;84;21269;-73
2022/02/26 11:04:01;;;;;;;3.17;1.55;;;;;;;9.76;37.24;101396.27;1662314;84;21087;-74
2022/02/26 11:06:28;;;;;;;4.20;2.15;;;;;;;9.77;37.32;101401.39;1652393;84;21874;-73
2022/02/26 11:08:55;;;;;;;3.12;1.40;;;;;;;9.82;37.19;101400.69;1658830;85;21680;-72
2022/02/26 11:11:25;;;;;;;4.92;1.67;;;;;;;9.90;37.25;101400.33;1660137;84;21580;-75
2022/02/26 11:13:55;;;;;;;4.92;1.70;;;;;;;9.96;37.43;101398.08;1643788;85;21128;-72
2022/02/26 11:16:23;;;;;;;3.35;1.20;;;;;;;9.98;37.28;101405.34;1650830;84;21594;-72
2022/02/26 11:18:54;;;;;;;3.00;1.10;;;;;;;9.95;37.15;101410.33;1655384;84;21705;-72
2022/02/26 11:21:23;;;;;;;4.60;1.50;;;;;;;9.85;36.73;101418.91;1656009;85;21099;-73
2022/02/26 11:23:50;;;;;;;3.77;1.30;;;;;;;9.72;35.88;101403.12;1657673;85;21095;-74
2022/02/26 11:26:19;;;;;;;2.52;1.17;;;;;;;9.62;36.35;101405.82;1657305;84;21079;-74
2022/02/26 11:28:52;;;;;;;3.98;1.42;;;;;;;9.66;36.15;101411.51;1657515;84;21198;-74
2022/02/26 11:31:25;;;;;;;3.37;1.25;;;;;;;9.70;35.70;101406.00;1656518;84;21820;-72
2022/02/26 11:33:55;;;;;;;2.20;0.75;;;;;;;9.76;35.77;101413.61;1656897;84;21570;-72